createdAt,value
2018-06-20T00:00:46.913Z,100852.14
2018-06-20T00:03:16.006Z,100848.59
2018-06-20T00:05:45.073Z,100850.92
2018-06-20T00:08:14.048Z,100853.89
2018-06-20T00:10:43.043Z,100853.33
2018-06-20T00:13:12.095Z,100855.31
2018-06-20T00:15:41.184Z,100852.59
2018-06-20T00:18:10.232Z,100848.29
2018-06-20T00:20:39.237Z,100852.59
2018-06-20T00:23:08.224Z,100852.53
2018-06-20T00:25:37.299Z,100858.29
2018-06-20T00:28:06.472Z,100854.86
2018-06-20T00:30:35.467Z,100855.40
2018-06-20T00:33:04.503Z,100859.48
2018-06-20T00:35:33.665Z,100859.34
2018-06-20T00:38:02.691Z,100858.20
2018-06-20T00:40:31.710Z,100859.56
2018-06-20T00:43:00.705Z,100854.55
2018-06-20T00:45:29.724Z,100857.02
2018-06-20T00:47:58.715Z,100852.06
2018-06-20T00:50:27.713Z,100857.67
2018-06-20T00:52:56.702Z,100853.73
2018-06-20T00:55:37.041Z,100855.31
2018-06-20T00:58:06.015Z,100858.86
2018-06-20T01:00:35.008Z,100859.39
2018-06-20T01:03:04.110Z,100855.97
2018-06-20T01:05:33.119Z,100858.69
2018-06-20T01:08:02.120Z,100853.25
2018-06-20T01:10:31.284Z,100861.89
2018-06-20T01:13:00.299Z,100863.02
2018-06-20T01:15:29.315Z,100859.95
2018-06-20T01:17:58.314Z,100857.10
2018-06-20T01:20:27.305Z,100857.27
2018-06-20T01:22:56.303Z,100855.52
2018-06-20T01:25:25.337Z,100855.03
2018-06-20T01:27:54.355Z,100852.88
2018-06-20T01:30:23.352Z,100853.90
2018-06-20T01:32:52.340Z,100854.95
2018-06-20T01:35:21.327Z,100857.19
2018-06-20T01:37:50.290Z,100858.72
2018-06-20T01:40:19.399Z,100859.59
2018-06-20T01:42:48.449Z,100861.75
2018-06-20T01:45:17.497Z,100859.19
2018-06-20T01:47:46.578Z,100858.56
2018-06-20T01:50:15.626Z,100863.44
2018-06-20T01:52:44.665Z,100858.00
2018-06-20T01:55:13.700Z,100859.19
2018-06-20T01:57:42.752Z,100858.56
2018-06-20T02:00:11.743Z,100862.39
2018-06-20T02:02:40.712Z,100864.00
2018-06-20T02:05:09.754Z,100856.72
2018-06-20T02:07:38.734Z,100859.61
2018-06-20T02:10:07.728Z,100856.89
2018-06-20T02:12:36.784Z,100864.95
2018-06-20T02:15:05.792Z,100860.01
2018-06-20T02:17:34.900Z,100858.08
2018-06-20T02:20:03.951Z,100866.46
2018-06-20T02:22:32.944Z,100863.52
2018-06-20T02:25:01.918Z,100867.82
2018-06-20T02:27:30.968Z,100864.39
2018-06-20T02:30:00.094Z,100866.00
2018-06-20T02:32:29.162Z,100864.77
2018-06-20T02:34:58.135Z,100862.70
2018-06-20T02:37:27.249Z,100869.17
2018-06-20T02:39:56.272Z,100865.89
2018-06-20T02:42:25.255Z,100863.87
2018-06-20T02:44:54.228Z,100869.05
2018-06-20T02:47:28.773Z,100873.20
2018-06-20T02:49:57.923Z,100869.24
2018-06-20T02:52:26.912Z,100872.59
2018-06-20T02:54:56.115Z,100866.34
2018-06-20T02:57:25.096Z,100869.70
2018-06-20T02:59:54.126Z,100869.66
2018-06-20T03:05:14.221Z,100868.19
2018-06-20T03:07:43.258Z,100868.80
2018-06-20T03:10:12.227Z,100865.52
2018-06-20T03:12:41.244Z,100866.83
2018-06-20T03:15:10.227Z,100863.29
2018-06-20T03:17:39.296Z,100858.19
2018-06-20T03:20:08.283Z,100860.98
2018-06-20T03:22:37.266Z,100861.29
2018-06-20T03:25:06.297Z,100866.34
2018-06-20T03:27:35.353Z,100867.93
2018-06-20T03:30:04.633Z,100865.93
2018-06-20T03:32:33.626Z,100866.11
2018-06-20T03:35:02.583Z,100871.66
2018-06-20T03:37:31.589Z,100869.69
2018-06-20T03:40:00.612Z,100871.53
2018-06-20T03:42:29.573Z,100870.50
2018-06-20T03:44:58.564Z,100870.35
2018-06-20T03:47:27.548Z,100877.78
2018-06-20T03:49:56.542Z,100878.21
2018-06-20T03:52:25.482Z,100870.77
2018-06-20T03:54:54.487Z,100871.03
2018-06-20T03:57:23.454Z,100870.87
2018-06-20T03:59:52.465Z,100869.57
2018-06-20T04:02:21.474Z,100865.51
2018-06-20T04:04:50.452Z,100871.17
2018-06-20T04:07:19.400Z,100865.99
2018-06-20T04:09:48.383Z,100865.99
2018-06-20T04:12:17.376Z,100865.52
2018-06-20T04:14:46.396Z,100860.22
2018-06-20T04:17:15.414Z,100861.34
2018-06-20T04:19:44.461Z,100865.12
2018-06-20T04:22:13.542Z,100862.28
2018-06-20T04:24:42.514Z,100859.88
2018-06-20T04:27:11.483Z,100856.62
2018-06-20T04:29:40.459Z,100852.84
2018-06-20T04:32:09.455Z,100861.44
2018-06-20T04:34:38.571Z,100859.11
2018-06-20T04:37:07.449Z,100858.75
2018-06-20T04:39:36.465Z,100849.58
2018-06-20T04:42:05.563Z,100856.25
2018-06-20T04:44:34.562Z,100855.93
2018-06-20T04:47:03.633Z,100857.19
2018-06-20T04:49:32.682Z,100859.36
2018-06-20T04:52:01.744Z,100856.89
2018-06-20T04:54:30.734Z,100858.05
2018-06-20T04:56:59.759Z,100855.87
2018-06-20T04:59:28.793Z,100857.91
2018-06-20T05:01:57.858Z,100859.70
2018-06-20T05:04:26.887Z,100862.62
2018-06-20T05:06:55.925Z,100868.25
2018-06-20T05:09:25.001Z,100862.77
2018-06-20T05:11:54.044Z,100863.70
2018-06-20T05:14:23.065Z,100869.06
2018-06-20T05:16:52.137Z,100865.57
2018-06-20T05:19:21.114Z,100865.28
2018-06-20T05:21:50.147Z,100871.13
2018-06-20T05:24:19.124Z,100868.89
2018-06-20T05:26:48.242Z,100877.89
2018-06-20T05:29:17.266Z,100877.23
2018-06-20T05:31:46.286Z,100875.67
2018-06-20T05:34:15.389Z,100880.23
2018-06-20T05:36:44.406Z,100881.79
2018-06-20T05:39:13.390Z,100887.52
2018-06-20T05:41:42.382Z,100886.26
2018-06-20T05:44:11.412Z,100885.91
2018-06-20T05:46:40.394Z,100877.98
2018-06-20T05:49:09.380Z,100878.86
2018-06-20T05:51:38.350Z,100876.84
2018-06-20T05:54:07.406Z,100880.25
2018-06-20T05:56:36.405Z,100882.30
2018-06-20T05:59:05.504Z,100872.05
2018-06-20T06:01:34.488Z,100864.41
2018-06-20T06:04:03.571Z,100868.06
2018-06-20T06:06:34.351Z,100869.43
2018-06-20T06:09:03.548Z,100866.38
2018-06-20T06:11:32.598Z,100870.03
2018-06-20T06:14:01.753Z,100862.06
2018-06-20T06:16:30.767Z,100861.73
2018-06-20T06:18:59.787Z,100863.16
2018-06-20T06:21:28.845Z,100851.54
2018-06-20T06:23:57.856Z,100844.77
2018-06-20T06:26:26.887Z,100844.15
2018-06-20T06:28:55.906Z,100842.22
2018-06-20T06:31:24.934Z,100843.31
2018-06-20T06:33:53.915Z,100845.90
2018-06-20T06:36:22.914Z,100836.89
2018-06-20T06:38:51.918Z,100845.47
2018-06-20T06:41:20.994Z,100839.36
2018-06-20T06:43:50.034Z,100833.79
2018-06-20T06:46:19.066Z,100826.74
2018-06-20T06:48:48.219Z,100835.97
2018-06-20T06:51:17.280Z,100828.91
2018-06-20T06:53:46.438Z,100829.82
2018-06-20T06:56:15.420Z,100825.34
2018-06-20T06:58:44.384Z,100820.56
2018-06-20T07:01:13.362Z,100828.95
2018-06-20T07:03:42.355Z,100829.33
2018-06-20T07:06:11.372Z,100836.56
2018-06-20T07:08:40.366Z,100822.88
2018-06-20T07:11:09.661Z,100830.26
2018-06-20T07:13:38.660Z,100834.98
2018-06-20T07:16:07.654Z,100838.13
2018-06-20T07:18:36.663Z,100827.05
2018-06-20T07:21:05.661Z,100827.09
2018-06-20T07:23:34.673Z,100818.64
2018-06-20T07:26:03.642Z,100818.95
2018-06-20T07:28:32.637Z,100813.54
2018-06-20T07:31:01.612Z,100809.62
2018-06-20T07:33:31.034Z,100807.27
2018-06-20T07:36:00.097Z,100813.86
2018-06-20T07:38:29.097Z,100818.47
2018-06-20T07:40:58.260Z,100809.78
2018-06-20T07:43:27.351Z,100816.72
2018-06-20T07:45:56.313Z,100815.05
2018-06-20T07:48:25.294Z,100809.83
2018-06-20T07:50:54.302Z,100810.88
2018-06-20T07:53:23.266Z,100805.61
2018-06-20T07:55:52.261Z,100805.98
2018-06-20T07:58:26.773Z,100810.37
2018-06-20T08:01:01.309Z,100801.69
2018-06-20T08:03:35.680Z,100795.00
2018-06-20T08:06:09.962Z,100788.78
2018-06-20T08:08:44.160Z,100783.40
2018-06-20T08:11:18.497Z,100788.56
2018-06-20T08:13:52.817Z,100787.46
2018-06-20T08:16:27.216Z,100786.32
2018-06-20T08:19:01.633Z,100784.38
2018-06-20T08:21:30.647Z,100784.70
2018-06-20T08:23:59.663Z,100781.02
2018-06-20T08:26:28.656Z,100780.98
2018-06-20T08:28:57.623Z,100772.13
2018-06-20T08:31:26.579Z,100772.02
2018-06-20T08:33:55.574Z,100779.35
2018-06-20T08:36:24.546Z,100775.55
2018-06-20T08:38:53.533Z,100766.70
2018-06-20T08:41:22.526Z,100765.88
2018-06-20T08:43:51.552Z,100765.58
2018-06-20T08:46:20.577Z,100765.16
2018-06-20T08:48:49.580Z,100761.34
2018-06-20T08:51:18.641Z,100753.61
2018-06-20T08:53:47.625Z,100758.58
2018-06-20T08:56:16.631Z,100753.44
2018-06-20T08:58:45.636Z,100755.37
2018-06-20T09:01:14.666Z,100751.16
2018-06-20T09:03:44.234Z,100753.22
2018-06-20T09:06:18.693Z,100744.27
2018-06-20T09:08:53.101Z,100739.81
2018-06-20T09:11:27.551Z,100733.52
2018-06-20T09:14:01.867Z,100735.45
2018-06-20T09:16:36.150Z,100728.39
2018-06-20T09:19:10.535Z,100726.58
2018-06-20T09:21:39.568Z,100719.31
2018-06-20T09:24:08.635Z,100712.31
2018-06-20T09:26:38.116Z,100717.27
2018-06-20T09:29:07.301Z,100710.48
2018-06-20T09:31:36.335Z,100696.79
2018-06-20T09:34:05.353Z,100695.84
2018-06-20T09:36:34.364Z,100694.86
2018-06-20T09:39:03.648Z,100687.28
2018-06-20T09:41:32.644Z,100696.75
2018-06-20T09:44:01.646Z,100683.77
2018-06-20T09:46:30.746Z,100679.87
2018-06-20T09:48:59.827Z,100679.30
2018-06-20T09:51:28.831Z,100684.78
2018-06-20T09:53:57.944Z,100677.33
2018-06-20T09:56:26.952Z,100678.98
2018-06-20T09:58:58.672Z,100673.66
2018-06-20T10:01:33.169Z,100669.33
2018-06-20T10:05:06.264Z,100662.75
2018-06-20T10:07:40.737Z,100659.34
2018-06-20T10:11:14.084Z,100654.58
2018-06-20T10:13:44.127Z,100655.02
2018-06-20T10:16:13.156Z,100656.78
2018-06-20T10:18:42.175Z,100660.15
2018-06-20T10:21:11.474Z,100640.63
2018-06-20T10:23:40.663Z,100631.83
2018-06-20T10:26:09.649Z,100636.42
2018-06-20T10:28:38.729Z,100636.77
2018-06-20T10:31:07.823Z,100633.04
2018-06-20T10:33:36.838Z,100634.86
2018-06-20T10:36:05.840Z,100628.03
2018-06-20T10:38:34.871Z,100618.36
2018-06-20T10:41:03.862Z,100616.45
2018-06-20T10:43:32.951Z,100613.23
2018-06-20T10:46:07.357Z,100614.85
2018-06-20T10:48:36.347Z,100607.70
2018-06-20T10:51:05.429Z,100601.41
2018-06-20T10:53:35.591Z,100596.19
2018-06-20T10:56:06.485Z,100594.73
2018-06-20T10:58:41.033Z,100592.98
2018-06-20T11:01:15.424Z,100584.59
2018-06-20T11:03:49.746Z,100595.47
2018-06-20T11:06:24.204Z,100589.59
2018-06-20T11:08:58.865Z,100588.86
2018-06-20T11:11:33.224Z,100586.95
2018-06-20T11:14:02.249Z,100583.11
2018-06-20T11:16:31.321Z,100588.25
2018-06-20T11:19:00.282Z,100578.63
2018-06-20T11:21:29.267Z,100563.82
2018-06-20T11:23:58.236Z,100554.25
2018-06-20T11:26:27.234Z,100552.66
2018-06-20T11:28:56.383Z,100545.81
2018-06-20T11:31:25.460Z,100541.30
2018-06-20T11:33:54.580Z,100537.73
2018-06-20T11:36:23.568Z,100537.02
2018-06-20T11:38:52.690Z,100540.11
2018-06-20T11:41:21.799Z,100531.83
2018-06-20T11:43:51.058Z,100522.55
2018-06-20T11:46:25.512Z,100516.13
2018-06-20T11:48:54.528Z,100517.24
2018-06-20T11:51:23.518Z,100520.25
2018-06-20T11:53:52.497Z,100509.21
2018-06-20T11:56:21.647Z,100502.72
2018-06-20T11:58:56.123Z,100510.00
2018-06-20T12:01:30.647Z,100507.20
2018-06-20T12:04:04.932Z,100493.08
2018-06-20T12:06:39.594Z,100496.50
2018-06-20T12:09:14.366Z,100495.37
2018-06-20T12:11:48.943Z,100488.25
2018-06-20T12:14:23.326Z,100481.23
2018-06-20T12:16:51.591Z,100482.06
2018-06-20T12:19:26.039Z,100477.39
2018-06-20T12:22:00.517Z,100466.33
2018-06-20T12:24:35.029Z,100465.69
2018-06-20T12:27:09.935Z,100454.97
2018-06-20T12:29:44.340Z,100459.13
2018-06-20T12:32:19.675Z,100455.13
2018-06-20T12:34:54.874Z,100450.87
2018-06-20T12:37:29.393Z,100440.73
2018-06-20T12:40:04.483Z,100450.68
2018-06-20T12:42:38.839Z,100456.78
2018-06-20T12:45:11.551Z,100455.97
2018-06-20T12:47:45.588Z,100438.98
2018-06-20T12:50:24.134Z,100438.28
2018-06-20T12:52:53.135Z,100434.69
2018-06-20T12:55:22.470Z,100437.25
2018-06-20T12:57:51.641Z,100430.55
2018-06-20T13:00:20.701Z,100424.66
2018-06-20T13:02:49.722Z,100416.13
2018-06-20T13:05:18.791Z,100417.63
2018-06-20T13:07:47.853Z,100407.89
2018-06-20T13:10:16.822Z,100399.84
2018-06-20T13:12:45.832Z,100396.06
2018-06-20T13:15:14.817Z,100395.31
2018-06-20T13:17:43.828Z,100396.79
2018-06-20T13:20:12.819Z,100397.35
2018-06-20T13:22:41.807Z,100398.05
2018-06-20T13:25:10.794Z,100395.80
2018-06-20T13:27:45.289Z,100387.52
2018-06-20T13:30:14.289Z,100376.95
2018-06-20T13:32:48.668Z,100392.80
2018-06-20T13:35:22.964Z,100381.11
2018-06-20T13:37:57.461Z,100386.33
2018-06-20T13:40:31.954Z,100374.16
2018-06-20T13:43:06.257Z,100377.66
2018-06-20T13:45:40.767Z,100371.02
2018-06-20T13:48:14.988Z,100368.52
2018-06-20T13:50:44.254Z,100367.66
2018-06-20T13:53:13.237Z,100363.39
2018-06-20T13:55:42.331Z,100367.59
2018-06-20T13:58:13.409Z,100365.31
2018-06-20T14:00:42.611Z,100344.89
2018-06-20T14:03:11.625Z,100352.18
2018-06-20T14:05:40.624Z,100354.07
2018-06-20T14:08:09.662Z,100343.39
2018-06-20T14:10:38.716Z,100339.39
2018-06-20T14:13:07.773Z,100345.41
2018-06-20T14:15:36.768Z,100346.99
2018-06-20T14:18:05.827Z,100350.84
2018-06-20T14:20:40.788Z,100343.64
2018-06-20T14:23:09.895Z,100342.67
2018-06-20T14:25:38.892Z,100339.27
2018-06-20T14:28:07.990Z,100331.90
2018-06-20T14:30:42.532Z,100329.97
2018-06-20T14:33:16.825Z,100321.21
2018-06-20T14:35:51.322Z,100315.92
2018-06-20T14:38:25.705Z,100322.08
2018-06-20T14:40:59.959Z,100314.87
2018-06-20T14:43:34.271Z,100314.90
2018-06-20T14:46:08.516Z,100312.84
2018-06-20T14:48:37.534Z,100309.88
2018-06-20T14:51:06.548Z,100297.73
2018-06-20T14:53:35.553Z,100304.15
2018-06-20T14:56:04.553Z,100298.91
2018-06-20T14:58:33.520Z,100297.36
2018-06-20T15:01:02.590Z,100294.23
2018-06-20T15:03:31.455Z,100286.31
2018-06-20T15:06:00.408Z,100280.42
2018-06-20T15:08:29.405Z,100281.27
2018-06-20T15:10:58.447Z,100269.19
2018-06-20T15:13:27.635Z,100270.13
2018-06-20T15:16:01.248Z,100269.96
2018-06-20T15:18:30.297Z,100263.83
2018-06-20T15:20:59.324Z,100261.94
2018-06-20T15:23:28.291Z,100267.37
2018-06-20T15:26:02.776Z,100266.91
2018-06-20T15:28:37.135Z,100259.02
2018-06-20T15:31:11.549Z,100256.66
2018-06-20T15:33:46.013Z,100249.27
2018-06-20T15:36:20.269Z,100246.33
2018-06-20T15:38:49.536Z,100245.36
2018-06-20T15:41:18.617Z,100239.14
2018-06-20T15:46:27.784Z,100231.78
2018-06-20T15:48:56.765Z,100236.26
2018-06-20T15:51:25.780Z,100231.91
2018-06-20T15:53:54.794Z,100228.99
2018-06-20T15:56:30.273Z,100227.78
2018-06-20T15:58:59.244Z,100229.74
2018-06-20T16:01:28.203Z,100225.41
2018-06-20T16:03:57.186Z,100222.01
2018-06-20T16:06:26.288Z,100222.20
2018-06-20T16:09:00.866Z,100222.05
2018-06-20T16:11:29.865Z,100213.56
2018-06-20T16:13:58.913Z,100212.81
2018-06-20T16:16:27.921Z,100205.21
2018-06-20T16:19:02.216Z,100207.92
2018-06-20T16:21:36.636Z,100203.03
2018-06-20T16:24:11.057Z,100204.62
2018-06-20T16:26:45.365Z,100204.40
2018-06-20T16:29:19.822Z,100196.00
2018-06-20T16:31:48.943Z,100191.70
2018-06-20T16:34:18.217Z,100194.69
2018-06-20T16:36:47.358Z,100187.47
2018-06-20T16:39:16.416Z,100191.12
2018-06-20T16:41:45.505Z,100187.46
2018-06-20T16:44:14.576Z,100189.12
2018-06-20T16:46:43.654Z,100177.67
2018-06-20T16:49:12.671Z,100186.34
2018-06-20T16:51:41.752Z,100189.70
2018-06-20T16:54:10.724Z,100186.67
2018-06-20T16:56:39.774Z,100183.91
2018-06-20T16:59:08.746Z,100185.89
2018-06-20T17:01:43.563Z,100171.47
2018-06-20T17:04:12.651Z,100175.64
2018-06-20T17:06:41.685Z,100173.08
2018-06-20T17:09:11.127Z,100174.02
2018-06-20T17:11:40.653Z,100177.12
2018-06-20T17:14:15.028Z,100166.77
2018-06-20T17:16:49.386Z,100166.13
2018-06-20T17:19:23.716Z,100160.33
2018-06-20T17:21:58.201Z,100164.76
2018-06-20T17:24:32.600Z,100160.13
2018-06-20T17:27:01.653Z,100150.45
2018-06-20T17:29:30.664Z,100154.08
2018-06-20T17:31:59.744Z,100146.86
2018-06-20T17:34:28.734Z,100142.16
2018-06-20T17:36:57.725Z,100141.52
2018-06-20T17:39:26.825Z,100140.14
2018-06-20T17:41:56.191Z,100148.84
2018-06-20T17:44:25.612Z,100142.84
2018-06-20T17:46:54.825Z,100142.53
2018-06-20T17:49:23.812Z,100140.08
2018-06-20T17:51:52.851Z,100140.30
2018-06-20T17:54:21.850Z,100135.06
2018-06-20T17:56:51.037Z,100144.47
2018-06-20T17:59:20.022Z,100136.27
2018-06-20T18:01:48.979Z,100132.45
2018-06-20T18:04:23.550Z,100132.39
2018-06-20T18:06:58.000Z,100135.31
2018-06-20T18:09:32.348Z,100128.25
2018-06-20T18:12:06.705Z,100123.70
2018-06-20T18:14:41.119Z,100122.88
2018-06-20T18:17:10.150Z,100120.03
2018-06-20T18:19:39.127Z,100127.83
2018-06-20T18:22:08.595Z,100124.91
2018-06-20T18:24:37.601Z,100127.95
2018-06-20T18:27:06.588Z,100128.98
2018-06-20T18:29:35.681Z,100127.40
2018-06-20T18:32:04.715Z,100125.64
2018-06-20T18:34:33.650Z,100130.60
2018-06-20T18:37:02.628Z,100121.14
2018-06-20T18:39:37.691Z,100121.80
2018-06-20T18:42:06.783Z,100131.12
2018-06-20T18:44:35.874Z,100128.83
2018-06-20T18:47:05.115Z,100127.11
2018-06-20T18:49:34.087Z,100126.94
2018-06-20T18:52:03.098Z,100128.32
2018-06-20T18:54:32.089Z,100127.19
2018-06-20T18:57:01.116Z,100131.36
2018-06-20T18:59:35.420Z,100125.64
2018-06-20T19:02:09.779Z,100123.52
2018-06-20T19:04:44.206Z,100127.71
2018-06-20T19:07:18.705Z,100133.05
2018-06-20T19:09:47.673Z,100132.28
2018-06-20T19:12:16.688Z,100123.62
2018-06-20T19:14:45.654Z,100123.25
2018-06-20T19:17:14.659Z,100127.22
2018-06-20T19:19:43.649Z,100127.62
2018-06-20T19:22:12.991Z,100126.24
2018-06-20T19:24:41.992Z,100133.91
2018-06-20T19:27:11.301Z,100131.38
2018-06-20T19:29:40.391Z,100137.45
2018-06-20T19:32:09.701Z,100135.13
2018-06-20T19:34:38.662Z,100133.34
2018-06-20T19:37:07.722Z,100130.59
2018-06-20T19:39:42.069Z,100134.28
2018-06-20T19:42:11.143Z,100136.25
2018-06-20T19:44:40.277Z,100136.23
2018-06-20T19:47:09.177Z,100138.70
2018-06-20T19:49:38.184Z,100136.84
2018-06-20T19:52:07.223Z,100140.69
2018-06-20T19:54:36.347Z,100132.50
2018-06-20T19:57:05.456Z,100142.25
2018-06-20T19:59:34.649Z,100141.55
2018-06-20T20:02:03.642Z,100133.42
2018-06-20T20:04:32.637Z,100135.84
2018-06-20T20:07:01.630Z,100134.83
2018-06-20T20:09:30.635Z,100133.59
2018-06-20T20:12:00.520Z,100128.95
2018-06-20T20:14:29.696Z,100131.59
2018-06-20T20:16:58.690Z,100125.44
2018-06-20T20:19:28.400Z,100129.11
2018-06-20T20:21:57.419Z,100131.02
2018-06-20T20:24:26.681Z,100133.28
2018-06-20T20:26:55.642Z,100137.75
2018-06-20T20:29:24.638Z,100129.88
2018-06-20T20:31:53.590Z,100132.00
2018-06-20T20:34:22.586Z,100126.64
2018-06-20T20:36:51.558Z,100127.80
2018-06-20T20:39:20.533Z,100122.84
2018-06-20T20:41:49.571Z,100125.09
2018-06-20T20:44:18.564Z,100121.77
2018-06-20T20:46:47.929Z,100117.45
2018-06-20T20:49:16.962Z,100116.39
2018-06-20T20:51:46.017Z,100114.91
2018-06-20T20:54:15.032Z,100117.08
2018-06-20T20:56:44.051Z,100116.55
2018-06-20T20:59:13.152Z,100117.48
2018-06-20T21:01:42.153Z,100120.50
2018-06-20T21:04:17.844Z,100120.01
2018-06-20T21:06:46.879Z,100112.77
2018-06-20T21:09:16.333Z,100111.99
2018-06-20T21:11:45.645Z,100109.22
2018-06-20T21:14:14.614Z,100114.62
2018-06-20T21:16:43.642Z,100110.25
2018-06-20T21:19:12.600Z,100101.98
2018-06-20T21:21:41.576Z,100103.91
2018-06-20T21:24:10.555Z,100104.76
2018-06-20T21:26:39.574Z,100099.29
2018-06-20T21:29:08.738Z,100098.05
2018-06-20T21:31:37.710Z,100094.23
2018-06-20T21:34:07.857Z,100096.78
2018-06-20T21:36:36.857Z,100100.17
2018-06-20T21:39:08.568Z,100092.44
2018-06-20T21:41:37.778Z,100088.53
2018-06-20T21:44:06.754Z,100094.56
2018-06-20T21:46:35.813Z,100085.11
2018-06-20T21:49:04.897Z,100087.52
2018-06-20T21:51:36.236Z,100088.14
2018-06-20T21:54:05.287Z,100085.83
2018-06-20T21:56:34.267Z,100080.97
2018-06-20T21:59:03.235Z,100078.63
2018-06-20T22:01:32.233Z,100079.25
2018-06-20T22:04:01.187Z,100079.67
2018-06-20T22:06:30.131Z,100080.55
2018-06-20T22:08:59.100Z,100074.03
2018-06-20T22:11:32.266Z,100074.16
2018-06-20T22:14:01.215Z,100069.21
2018-06-20T22:16:30.291Z,100065.92
2018-06-20T22:18:59.374Z,100064.65
2018-06-20T22:21:28.537Z,100066.22
2018-06-20T22:23:57.763Z,100063.80
2018-06-20T22:26:26.794Z,100066.70
2018-06-20T22:28:56.126Z,100054.19
2018-06-20T22:31:25.131Z,100050.34
2018-06-20T22:33:54.356Z,100052.98
2018-06-20T22:36:23.316Z,100050.14
2018-06-20T22:38:52.316Z,100046.98
2018-06-20T22:41:21.388Z,100045.61
2018-06-20T22:43:50.345Z,100043.81
2018-06-20T22:46:19.321Z,100044.34
2018-06-20T22:48:48.309Z,100040.08
2018-06-20T22:51:17.276Z,100039.61
2018-06-20T22:53:46.292Z,100037.50
2018-06-20T22:56:15.257Z,100032.25
2018-06-20T22:58:44.331Z,100032.77
2018-06-20T23:01:13.263Z,100023.20
2018-06-20T23:03:42.383Z,100027.72
2018-06-20T23:06:11.369Z,100030.92
2018-06-20T23:08:40.491Z,100031.05
2018-06-20T23:11:09.505Z,100032.34
2018-06-20T23:13:38.575Z,100029.70
2018-06-20T23:16:07.584Z,100039.34
2018-06-20T23:18:36.548Z,100031.19
2018-06-20T23:21:05.596Z,100025.91
2018-06-20T23:23:34.555Z,100020.98
2018-06-20T23:26:03.584Z,100012.84
2018-06-20T23:28:32.557Z,100010.34
2018-06-20T23:31:01.608Z,100013.17
2018-06-20T23:33:30.600Z,100005.36
2018-06-20T23:35:59.581Z,100010.30
2018-06-20T23:38:28.545Z,100007.70
2018-06-20T23:40:57.562Z,100005.27
2018-06-20T23:43:26.565Z,99998.03
2018-06-20T23:45:55.561Z,99998.70
2018-06-20T23:48:24.519Z,99993.59
2018-06-20T23:50:53.615Z,100000.41
2018-06-20T23:53:22.589Z,100000.41
2018-06-20T23:55:51.571Z,99999.84
2018-06-20T23:58:20.562Z,99997.41
